createdAt,value
2022-11-25T00:01:16.453Z,96.80
2022-11-25T00:03:43.805Z,96.70
2022-11-25T00:09:32.610Z,96.70
2022-11-25T00:11:59.310Z,96.60
2022-11-25T00:14:26.020Z,96.70
2022-11-25T00:16:53.051Z,96.70
2022-11-25T00:19:19.782Z,96.70
2022-11-25T00:21:46.681Z,96.80
2022-11-25T00:24:14.599Z,96.80
2022-11-25T00:26:41.456Z,96.90
2022-11-25T00:29:10.164Z,96.70
2022-11-25T00:31:37.985Z,96.80
2022-11-25T00:34:05.215Z,96.80
2022-11-25T00:36:33.062Z,96.70
2022-11-25T00:39:04.838Z,96.60
2022-11-25T00:41:50.250Z,96.60
2022-11-25T00:44:37.564Z,96.70
2022-11-25T00:47:15.072Z,96.70
2022-11-25T00:49:43.123Z,96.70
2022-11-25T00:52:12.928Z,96.70
2022-11-25T00:54:39.677Z,96.50
2022-11-25T00:57:06.420Z,96.50
2022-11-25T00:59:33.182Z,96.50
2022-11-25T01:02:00.093Z,96.60
2022-11-25T01:04:26.979Z,96.60
2022-11-25T01:06:54.367Z,96.50
2022-11-25T01:09:21.052Z,96.50
2022-11-25T01:11:49.636Z,96.60
2022-11-25T01:14:16.395Z,96.60
2022-11-25T01:16:43.219Z,96.80
2022-11-25T01:19:10.582Z,96.70
2022-11-25T01:21:37.393Z,96.70
2022-11-25T01:24:22.099Z,96.60
2022-11-25T01:27:01.977Z,96.60
2022-11-25T01:29:28.752Z,96.80
2022-11-25T01:31:56.216Z,96.60
2022-11-25T01:34:25.374Z,96.80
2022-11-25T01:36:52.141Z,96.70
2022-11-25T01:39:24.482Z,96.70
2022-11-25T01:41:55.395Z,96.60
2022-11-25T01:44:23.594Z,96.60
2022-11-25T01:47:08.415Z,96.70
2022-11-25T01:49:55.035Z,96.70
2022-11-25T01:52:27.123Z,96.70
2022-11-25T01:55:14.138Z,96.60
2022-11-25T01:57:43.862Z,96.50
2022-11-25T02:00:11.127Z,96.60
2022-11-25T02:02:38.298Z,96.60
2022-11-25T02:05:08.768Z,96.70
2022-11-25T02:07:37.797Z,96.60
2022-11-25T02:10:07.115Z,96.60
2022-11-25T02:12:43.780Z,96.60
2022-11-25T02:15:10.791Z,96.60
2022-11-25T02:17:37.742Z,96.50
2022-11-25T02:20:04.790Z,96.50
2022-11-25T02:22:47.122Z,96.60
2022-11-25T02:25:15.799Z,96.60
2022-11-25T02:27:44.416Z,96.70
2022-11-25T02:30:11.375Z,96.60
2022-11-25T02:32:43.010Z,96.50
2022-11-25T02:35:25.187Z,96.60
2022-11-25T02:37:52.657Z,96.60
2022-11-25T02:40:19.476Z,96.70
2022-11-25T02:42:47.579Z,96.70
2022-11-25T02:45:15.845Z,96.60
2022-11-25T02:47:42.569Z,96.60
2022-11-25T02:50:09.446Z,96.60
2022-11-25T02:52:36.161Z,96.60
2022-11-25T02:55:02.855Z,96.50
2022-11-25T02:57:29.545Z,96.50
2022-11-25T02:59:56.274Z,96.70
2022-11-25T03:02:23.141Z,96.70
2022-11-25T03:04:49.950Z,96.70
2022-11-25T03:07:16.921Z,96.60
2022-11-25T03:09:43.810Z,96.60
2022-11-25T03:12:19.653Z,96.60
2022-11-25T03:14:46.340Z,96.60
2022-11-25T03:17:13.441Z,96.60
2022-11-25T03:19:40.399Z,96.60
2022-11-25T03:22:07.189Z,96.70
2022-11-25T03:24:34.301Z,96.60
2022-11-25T03:27:01.527Z,96.60
2022-11-25T03:29:28.247Z,96.60
2022-11-25T03:31:55.090Z,96.60
2022-11-25T03:34:22.131Z,96.60
2022-11-25T03:36:49.142Z,96.50
2022-11-25T03:39:16.227Z,96.60
2022-11-25T03:41:43.038Z,96.60
2022-11-25T03:44:09.819Z,96.60
2022-11-25T03:46:36.560Z,96.60
2022-11-25T03:49:03.731Z,96.40
2022-11-25T03:51:30.454Z,96.80
2022-11-25T03:53:57.128Z,96.40
2022-11-25T03:56:24.086Z,96.40
2022-11-25T03:58:50.855Z,96.50
2022-11-25T04:01:17.826Z,96.50
2022-11-25T04:03:44.844Z,96.50
2022-11-25T04:06:11.728Z,96.40
2022-11-25T04:08:38.431Z,96.40
2022-11-25T04:11:05.285Z,96.50
2022-11-25T04:13:31.985Z,96.50
2022-11-25T04:15:58.732Z,96.40
2022-11-25T04:18:25.449Z,96.40
2022-11-25T04:20:52.156Z,96.50
2022-11-25T04:23:18.843Z,96.50
2022-11-25T04:25:45.620Z,96.50
2022-11-25T04:28:12.464Z,96.50
2022-11-25T04:30:39.379Z,96.40
2022-11-25T04:33:06.271Z,96.40
2022-11-25T04:35:32.962Z,96.40
2022-11-25T04:37:59.819Z,96.30
2022-11-25T04:40:26.702Z,96.30
2022-11-25T04:42:59.345Z,96.40
2022-11-25T04:45:45.329Z,96.40
2022-11-25T04:48:16.316Z,96.40
2022-11-25T04:50:44.265Z,96.40
2022-11-25T04:53:11.328Z,96.40
2022-11-25T04:55:38.163Z,96.40
2022-11-25T04:58:04.997Z,96.40
2022-11-25T05:00:31.877Z,96.40
2022-11-25T05:02:58.759Z,96.40
2022-11-25T05:05:25.567Z,96.40
2022-11-25T05:07:52.888Z,96.40
2022-11-25T05:10:19.861Z,96.40
2022-11-25T05:12:46.619Z,96.50
2022-11-25T05:15:13.523Z,96.30
2022-11-25T05:17:40.402Z,96.40
2022-11-25T05:20:07.526Z,96.40
2022-11-25T05:22:34.598Z,96.50
2022-11-25T05:25:01.621Z,96.40
2022-11-25T05:27:28.435Z,96.50
2022-11-25T05:29:56.380Z,96.50
2022-11-25T05:32:23.450Z,96.40
2022-11-25T05:34:50.236Z,96.50
2022-11-25T05:37:21.274Z,96.50
2022-11-25T05:39:51.081Z,96.50
2022-11-25T05:42:18.046Z,96.60
2022-11-25T05:44:44.756Z,96.60
2022-11-25T05:47:11.554Z,96.50
2022-11-25T05:49:38.288Z,96.50
2022-11-25T05:52:05.023Z,96.60
2022-11-25T05:54:31.877Z,96.50
2022-11-25T05:56:58.653Z,96.50
2022-11-25T06:02:53.313Z,96.50
2022-11-25T06:05:20.623Z,96.50
2022-11-25T06:07:47.429Z,96.40
2022-11-25T06:10:14.369Z,96.40
2022-11-25T06:12:41.087Z,96.40
2022-11-25T06:15:08.126Z,96.40
2022-11-25T06:17:34.907Z,96.40
2022-11-25T06:20:01.705Z,96.40
2022-11-25T06:22:28.408Z,96.50
2022-11-25T06:25:01.887Z,96.40
2022-11-25T06:27:44.238Z,96.40
2022-11-25T06:30:17.581Z,96.40
2022-11-25T06:32:44.543Z,96.30
2022-11-25T06:35:11.270Z,96.40
2022-11-25T06:37:38.106Z,96.40
2022-11-25T06:40:05.190Z,96.40
2022-11-25T06:42:31.918Z,96.40
2022-11-25T06:44:58.778Z,96.40
2022-11-25T06:47:25.931Z,96.40
2022-11-25T06:49:52.671Z,96.40
2022-11-25T06:52:19.475Z,96.40
2022-11-25T06:54:46.220Z,96.60
2022-11-25T06:57:16.413Z,96.50
2022-11-25T06:59:44.063Z,96.50
2022-11-25T07:02:13.928Z,96.50
2022-11-25T07:04:40.761Z,96.50
2022-11-25T07:07:07.628Z,96.40
2022-11-25T07:09:34.336Z,96.40
2022-11-25T07:12:01.056Z,96.50
2022-11-25T07:14:27.909Z,96.50
2022-11-25T07:16:54.661Z,96.50
2022-11-25T07:19:21.463Z,96.40
2022-11-25T07:21:48.243Z,96.50
2022-11-25T07:24:15.924Z,96.60
2022-11-25T07:26:43.710Z,96.50
2022-11-25T07:31:58.739Z,96.50
2022-11-25T07:34:25.751Z,96.40
2022-11-25T07:36:52.498Z,96.40
2022-11-25T07:39:20.407Z,96.40
2022-11-25T07:41:49.984Z,96.40
2022-11-25T07:44:16.681Z,96.50
2022-11-25T07:46:45.063Z,96.60
2022-11-25T07:49:13.433Z,96.60
2022-11-25T07:51:49.137Z,96.60
2022-11-25T07:54:16.063Z,96.60
2022-11-25T07:56:44.741Z,96.60
2022-11-25T07:59:15.752Z,96.60
2022-11-25T08:01:42.646Z,96.70
2022-11-25T08:04:12.768Z,96.70
2022-11-25T08:06:44.494Z,96.60
2022-11-25T08:09:13.074Z,96.90
2022-11-25T08:11:40.265Z,96.60
2022-11-25T08:14:07.325Z,96.60
2022-11-25T08:16:34.247Z,96.70
2022-11-25T08:19:01.804Z,96.60
2022-11-25T08:21:28.733Z,96.70
2022-11-25T08:23:55.742Z,96.70
2022-11-25T08:26:23.783Z,96.70
2022-11-25T08:28:50.717Z,96.70
2022-11-25T08:31:19.106Z,96.70
2022-11-25T08:33:45.978Z,96.60
2022-11-25T08:36:13.216Z,96.60
2022-11-25T08:38:40.625Z,96.60
2022-11-25T08:41:11.671Z,96.60
2022-11-25T08:43:38.876Z,96.60
2022-11-25T08:46:13.018Z,96.60
2022-11-25T08:48:40.069Z,96.80
2022-11-25T08:51:10.565Z,96.90
2022-11-25T08:53:38.177Z,96.70
2022-11-25T08:56:05.547Z,96.70
2022-11-25T08:58:32.471Z,96.80
2022-11-25T09:00:59.373Z,96.80
2022-11-25T09:03:26.219Z,96.70
2022-11-25T09:05:53.597Z,96.80
2022-11-25T09:08:21.126Z,96.70
2022-11-25T09:10:48.131Z,96.80
2022-11-25T09:13:14.921Z,96.80
2022-11-25T09:15:41.793Z,96.80
2022-11-25T09:18:09.493Z,96.70
2022-11-25T09:20:37.856Z,96.70
2022-11-25T09:23:04.650Z,96.70
2022-11-25T09:25:31.431Z,96.60
2022-11-25T09:27:58.392Z,96.60
2022-11-25T09:30:25.618Z,96.70
2022-11-25T09:32:53.650Z,96.80
2022-11-25T09:35:20.618Z,96.70
2022-11-25T09:37:47.571Z,96.70
2022-11-25T09:40:18.634Z,96.70
2022-11-25T09:43:13.427Z,96.80
2022-11-25T09:45:58.899Z,96.60
2022-11-25T09:48:25.592Z,96.70
2022-11-25T09:50:55.283Z,96.70
2022-11-25T09:53:37.950Z,96.80
2022-11-25T09:56:06.911Z,96.80
2022-11-25T09:58:35.729Z,96.80
2022-11-25T10:01:07.197Z,96.70
2022-11-25T10:03:44.725Z,96.90
2022-11-25T10:06:20.826Z,96.80
2022-11-25T10:08:48.977Z,96.80
2022-11-25T10:11:24.926Z,96.70
2022-11-25T10:13:54.813Z,96.80
2022-11-25T10:16:24.618Z,96.70
2022-11-25T10:18:58.882Z,96.70
2022-11-25T10:21:25.997Z,96.90
2022-11-25T10:23:52.823Z,96.80
2022-11-25T10:26:21.856Z,96.90
2022-11-25T10:28:55.787Z,96.90
2022-11-25T10:31:27.167Z,96.90
2022-11-25T10:33:57.109Z,96.90
2022-11-25T10:36:34.140Z,96.80
2022-11-25T10:39:07.095Z,96.90
2022-11-25T10:41:57.237Z,96.90
2022-11-25T10:44:42.343Z,96.90
2022-11-25T10:47:22.596Z,96.90
2022-11-25T10:50:11.738Z,96.90
2022-11-25T10:52:49.170Z,97.00
2022-11-25T10:55:16.091Z,97.00
2022-11-25T10:57:43.164Z,96.90
2022-11-25T11:00:25.349Z,96.90
2022-11-25T11:02:52.206Z,97.00
2022-11-25T11:05:29.878Z,97.00
2022-11-25T11:08:09.350Z,96.90
2022-11-25T11:10:36.337Z,96.90
2022-11-25T11:13:04.442Z,97.00
2022-11-25T11:15:40.270Z,97.00
2022-11-25T11:18:19.338Z,97.00
2022-11-25T11:20:47.712Z,96.90
2022-11-25T11:23:14.757Z,96.90
2022-11-25T11:25:56.754Z,96.90
2022-11-25T11:28:29.193Z,97.00
2022-11-25T11:31:04.140Z,96.90
2022-11-25T11:33:34.545Z,96.90
2022-11-25T11:36:21.325Z,96.90
2022-11-25T11:38:56.696Z,96.90
2022-11-25T11:41:56.187Z,96.80
2022-11-25T11:44:32.173Z,96.90
2022-11-25T11:47:23.361Z,96.90
2022-11-25T11:49:57.011Z,96.90
2022-11-25T11:52:23.746Z,96.90
2022-11-25T11:54:54.378Z,96.90
2022-11-25T11:57:30.049Z,96.90
2022-11-25T11:59:59.643Z,97.00
2022-11-25T12:02:31.569Z,97.00
2022-11-25T12:05:01.090Z,97.00
2022-11-25T12:07:37.062Z,96.90
2022-11-25T12:10:09.863Z,96.90
2022-11-25T12:12:40.353Z,97.00
2022-11-25T12:15:15.132Z,96.90
2022-11-25T12:17:45.361Z,96.90
2022-11-25T12:20:30.370Z,97.00
2022-11-25T12:23:05.368Z,97.00
2022-11-25T12:25:37.112Z,96.90
2022-11-25T12:28:07.010Z,96.90
2022-11-25T12:31:04.713Z,96.90
2022-11-25T12:33:43.969Z,96.90
2022-11-25T12:36:13.570Z,96.90
2022-11-25T12:38:40.254Z,96.90
2022-11-25T12:41:30.874Z,96.90
2022-11-25T12:44:04.851Z,97.00
2022-11-25T12:46:34.863Z,97.00
2022-11-25T12:49:02.319Z,96.90
2022-11-25T12:51:29.023Z,96.90
2022-11-25T12:54:17.840Z,96.90
2022-11-25T12:57:03.407Z,96.90
2022-11-25T12:59:47.031Z,97.00
2022-11-25T13:02:13.880Z,97.00
2022-11-25T13:04:48.625Z,97.00
2022-11-25T13:07:23.777Z,97.00
2022-11-25T13:10:20.057Z,97.00
2022-11-25T13:13:04.514Z,96.90
2022-11-25T13:15:34.669Z,96.90
2022-11-25T13:18:03.198Z,97.00
2022-11-25T13:20:29.948Z,97.00
2022-11-25T13:23:05.934Z,96.90
2022-11-25T13:25:33.186Z,96.90
2022-11-25T13:28:00.952Z,97.00
2022-11-25T13:30:33.718Z,97.00
2022-11-25T13:33:09.607Z,97.00
2022-11-25T13:35:37.528Z,96.90
2022-11-25T13:38:07.981Z,97.00
2022-11-25T13:40:38.543Z,97.00
2022-11-25T13:43:06.125Z,96.90
2022-11-25T13:45:34.598Z,96.90
2022-11-25T13:48:10.445Z,97.00
2022-11-25T13:51:03.598Z,97.00
2022-11-25T13:53:33.144Z,97.00
2022-11-25T13:56:18.682Z,97.00
2022-11-25T13:59:04.206Z,97.10
2022-11-25T14:01:30.944Z,97.00
2022-11-25T14:04:00.357Z,97.10
2022-11-25T14:06:33.974Z,97.10
2022-11-25T14:09:13.034Z,97.10
2022-11-25T14:11:48.739Z,97.00
2022-11-25T14:14:18.538Z,97.00
2022-11-25T14:16:48.325Z,97.00
2022-11-25T14:19:49.395Z,97.00
2022-11-25T14:22:10.973Z,97.10
2022-11-25T14:24:40.344Z,97.10
2022-11-25T14:27:13.402Z,97.10
2022-11-25T14:30:00.442Z,97.10
2022-11-25T14:32:30.450Z,97.00
2022-11-25T14:35:11.015Z,97.00
2022-11-25T14:37:51.901Z,97.10
2022-11-25T14:40:20.637Z,97.10
2022-11-25T14:42:50.259Z,97.10
2022-11-25T14:45:25.300Z,97.10
2022-11-25T14:47:52.192Z,97.00
2022-11-25T14:50:34.304Z,97.10
2022-11-25T14:53:05.467Z,97.00
2022-11-25T14:55:32.301Z,97.00
2022-11-25T14:57:59.233Z,97.10
2022-11-25T15:00:26.124Z,97.10
2022-11-25T15:03:00.425Z,97.10
2022-11-25T15:05:32.389Z,97.00
2022-11-25T15:08:02.007Z,97.10
2022-11-25T15:10:32.921Z,97.20
2022-11-25T15:13:00.533Z,97.10
2022-11-25T15:15:27.726Z,97.10
2022-11-25T15:22:21.943Z,97.10
2022-11-25T15:24:48.922Z,97.10
2022-11-25T15:27:20.460Z,97.10
2022-11-25T15:29:48.449Z,97.10
2022-11-25T15:32:20.232Z,97.10
2022-11-25T15:34:47.609Z,97.10
2022-11-25T15:37:14.344Z,97.20
2022-11-25T15:39:41.074Z,97.20
2022-11-25T15:42:19.671Z,97.10
2022-11-25T15:44:51.616Z,97.10
2022-11-25T15:47:23.624Z,97.10
2022-11-25T15:49:57.846Z,97.10
2022-11-25T15:52:25.327Z,97.10
2022-11-25T15:54:53.877Z,97.10
2022-11-25T15:57:37.181Z,97.20
2022-11-25T16:00:05.345Z,97.20
2022-11-25T16:02:39.941Z,97.20
2022-11-25T16:05:14.351Z,97.20
2022-11-25T16:11:16.743Z,97.30
2022-11-25T16:13:43.567Z,97.20
2022-11-25T16:16:24.216Z,97.20
2022-11-25T16:19:11.804Z,97.20
2022-11-25T16:21:53.213Z,97.20
2022-11-25T16:24:26.180Z,97.10
2022-11-25T16:27:03.668Z,97.20
2022-11-25T16:29:33.261Z,97.20
2022-11-25T16:32:00.604Z,97.30
2022-11-25T16:34:27.785Z,97.30
2022-11-25T16:36:54.521Z,97.20
2022-11-25T16:39:21.271Z,97.20
2022-11-25T16:41:55.401Z,97.20
2022-11-25T16:44:22.867Z,97.20
2022-11-25T16:46:49.983Z,97.20
2022-11-25T16:49:17.781Z,97.20
2022-11-25T16:51:44.766Z,97.20
2022-11-25T16:54:12.492Z,97.20
2022-11-25T16:56:41.102Z,97.30
2022-11-25T16:59:15.805Z,97.30
2022-11-25T17:01:43.790Z,97.20
2022-11-25T17:04:15.305Z,97.20
2022-11-25T17:06:43.855Z,97.20
2022-11-25T17:09:11.491Z,97.20
2022-11-25T17:11:46.288Z,97.20
2022-11-25T17:14:17.914Z,97.20
2022-11-25T17:16:45.445Z,97.30
2022-11-25T17:19:14.889Z,97.20
2022-11-25T17:21:41.979Z,97.30
2022-11-25T17:24:27.211Z,97.20
2022-11-25T17:27:04.294Z,97.20
2022-11-25T17:29:34.047Z,97.20
2022-11-25T17:32:01.464Z,97.20
2022-11-25T17:34:28.380Z,97.20
2022-11-25T17:36:55.157Z,97.30
2022-11-25T17:39:21.871Z,97.20
2022-11-25T17:41:49.719Z,97.20
2022-11-25T17:44:19.169Z,97.20
2022-11-25T17:46:45.929Z,97.30
2022-11-25T17:49:13.884Z,97.20
2022-11-25T17:51:40.825Z,97.20
2022-11-25T17:54:07.537Z,97.20
2022-11-25T17:56:34.545Z,97.20
2022-11-25T17:59:03.099Z,97.10
2022-11-25T18:01:30.040Z,97.20
2022-11-25T18:03:56.903Z,97.20
2022-11-25T18:06:23.658Z,97.20
2022-11-25T18:08:50.346Z,97.20
2022-11-25T18:11:18.772Z,97.20
2022-11-25T18:13:47.336Z,97.20
2022-11-25T18:16:15.372Z,97.20
2022-11-25T18:18:42.221Z,97.20
2022-11-25T18:21:09.215Z,97.20
2022-11-25T18:23:35.926Z,97.20
2022-11-25T18:26:02.722Z,97.20
2022-11-25T18:28:30.479Z,97.10
2022-11-25T18:30:59.667Z,97.20
2022-11-25T18:33:26.462Z,97.40
2022-11-25T18:35:53.140Z,97.20
2022-11-25T18:38:19.946Z,97.10
2022-11-25T18:40:52.039Z,97.20
2022-11-25T18:43:24.905Z,97.20
2022-11-25T18:45:52.705Z,97.10
2022-11-25T18:48:19.572Z,97.10
2022-11-25T18:50:46.974Z,97.10
2022-11-25T18:53:13.902Z,97.20
2022-11-25T18:55:41.001Z,97.10
2022-11-25T18:58:15.564Z,97.00
2022-11-25T19:00:42.849Z,97.20
2022-11-25T19:03:16.260Z,97.20
2022-11-25T19:05:42.956Z,97.10
2022-11-25T19:08:09.637Z,97.00
2022-11-25T19:10:37.056Z,97.00
2022-11-25T19:13:07.723Z,97.00
2022-11-25T19:15:37.447Z,97.10
2022-11-25T19:18:05.327Z,97.10
2022-11-25T19:20:32.579Z,97.10
2022-11-25T19:23:01.483Z,97.10
2022-11-25T19:25:28.442Z,97.10
2022-11-25T19:27:57.513Z,97.20
2022-11-25T19:30:30.165Z,97.20
2022-11-25T19:32:58.034Z,97.20
2022-11-25T19:35:36.156Z,97.10
2022-11-25T19:38:02.926Z,97.20
2022-11-25T19:40:34.682Z,97.20
2022-11-25T19:43:04.611Z,97.20
2022-11-25T19:45:32.165Z,97.20
2022-11-25T19:48:00.136Z,97.10
2022-11-25T19:50:27.785Z,97.20
2022-11-25T19:52:54.596Z,97.20
2022-11-25T19:55:23.366Z,97.20
2022-11-25T19:57:50.705Z,97.20
2022-11-25T20:00:18.586Z,97.10
2022-11-25T20:02:46.004Z,97.20
2022-11-25T20:05:17.419Z,97.20
2022-11-25T20:07:44.261Z,97.20
2022-11-25T20:10:14.243Z,97.20
2022-11-25T20:12:41.122Z,97.20
2022-11-25T20:15:08.153Z,97.20
2022-11-25T20:17:35.384Z,97.20
2022-11-25T20:20:14.051Z,97.30
2022-11-25T20:22:42.986Z,97.20
2022-11-25T20:25:12.922Z,97.20
2022-11-25T20:27:39.711Z,97.30
2022-11-25T20:30:16.533Z,97.20
2022-11-25T20:32:43.457Z,97.20
2022-11-25T20:35:11.080Z,97.20
2022-11-25T20:37:51.259Z,97.20
2022-11-25T20:40:20.306Z,97.30
2022-11-25T20:42:48.538Z,97.20
2022-11-25T20:45:17.533Z,97.20
2022-11-25T20:47:44.950Z,97.20
2022-11-25T20:50:14.698Z,97.20
2022-11-25T20:52:42.268Z,97.20
2022-11-25T20:55:14.983Z,97.20
2022-11-25T20:57:41.845Z,97.20
2022-11-25T21:00:18.841Z,97.20
2022-11-25T21:02:45.748Z,97.20
2022-11-25T21:05:12.798Z,97.30
2022-11-25T21:07:40.064Z,97.20
2022-11-25T21:10:16.936Z,97.10
2022-11-25T21:12:43.689Z,97.20
2022-11-25T21:15:17.918Z,97.30
2022-11-25T21:17:44.939Z,97.10
2022-11-25T21:20:12.481Z,97.10
2022-11-25T21:22:41.458Z,97.10
2022-11-25T21:25:11.516Z,97.10
2022-11-25T21:27:38.264Z,97.20
2022-11-25T21:30:12.411Z,97.20
2022-11-25T21:32:39.305Z,97.10
2022-11-25T21:35:06.282Z,97.20
2022-11-25T21:37:36.440Z,97.20
2022-11-25T21:40:04.466Z,97.20
2022-11-25T21:42:31.748Z,97.20
2022-11-25T21:44:58.422Z,97.10
2022-11-25T21:47:26.203Z,97.10
2022-11-25T21:49:53.238Z,97.20
2022-11-25T21:52:19.951Z,97.20
2022-11-25T21:54:46.839Z,97.20
2022-11-25T21:57:15.029Z,97.20
2022-11-25T21:59:41.938Z,97.20
2022-11-25T22:02:18.861Z,97.10
2022-11-25T22:04:46.024Z,97.20
2022-11-25T22:07:12.977Z,97.20
2022-11-25T22:09:40.175Z,97.20
2022-11-25T22:12:07.557Z,97.10
2022-11-25T22:14:37.474Z,97.20
2022-11-25T22:17:05.796Z,97.20
2022-11-25T22:19:32.841Z,97.20
2022-11-25T22:21:59.559Z,97.50
2022-11-25T22:24:26.403Z,97.20
2022-11-25T22:26:58.045Z,97.20
2022-11-25T22:29:29.375Z,97.20
2022-11-25T22:31:56.241Z,97.30
2022-11-25T22:34:23.321Z,97.20
2022-11-25T22:36:50.332Z,97.20
2022-11-25T22:39:18.262Z,97.30
2022-11-25T22:41:53.633Z,97.20
2022-11-25T22:44:25.012Z,97.20
2022-11-25T22:46:51.989Z,97.10
2022-11-25T22:49:30.684Z,97.20
2022-11-25T22:51:57.773Z,97.20
2022-11-25T22:54:24.665Z,97.20
2022-11-25T22:56:51.443Z,97.30
2022-11-25T22:59:18.183Z,97.30
2022-11-25T23:01:45.150Z,97.20
2022-11-25T23:04:18.980Z,97.20
2022-11-25T23:06:46.016Z,97.30
2022-11-25T23:09:17.419Z,97.20
2022-11-25T23:11:44.835Z,97.20
2022-11-25T23:14:12.046Z,97.20
2022-11-25T23:16:39.897Z,97.20
2022-11-25T23:19:11.118Z,97.20
2022-11-25T23:21:38.070Z,97.20
2022-11-25T23:24:09.631Z,97.20
2022-11-25T23:26:36.437Z,97.20
2022-11-25T23:29:03.142Z,97.10
2022-11-25T23:31:29.966Z,97.10
2022-11-25T23:33:56.774Z,97.20
2022-11-25T23:36:25.573Z,97.20
2022-11-25T23:38:54.760Z,97.30
2022-11-25T23:41:23.775Z,97.30
2022-11-25T23:43:50.713Z,97.10
2022-11-25T23:46:18.685Z,97.10
2022-11-25T23:48:47.813Z,97.20
2022-11-25T23:51:14.513Z,97.20
2022-11-25T23:53:41.269Z,97.20
2022-11-25T23:56:08.520Z,97.20
2022-11-25T23:58:35.310Z,97.20
